sensor_id;sensor_type;location;lat;lon;timestamp;P1;durP1;ratioP1;P2;durP2;ratioP2
42598;SDS011;28225;42.714;23.860;2022-12-18T00:01:43;49.78;;;19.08;;
42598;SDS011;28225;42.714;23.860;2022-12-18T00:04:22;51.42;;;20.77;;
42598;SDS011;28225;42.714;23.860;2022-12-18T00:09:14;38.90;;;18.05;;
42598;SDS011;28225;42.714;23.860;2022-12-18T00:11:39;45.50;;;19.98;;
42598;SDS011;28225;42.714;23.860;2022-12-18T00:14:05;47.88;;;19.05;;
42598;SDS011;28225;42.714;23.860;2022-12-18T00:16:30;45.03;;;20.25;;
42598;SDS011;28225;42.714;23.860;2022-12-18T00:18:58;35.72;;;18.27;;
42598;SDS011;28225;42.714;23.860;2022-12-18T00:21:25;31.73;;;18.45;;
42598;SDS011;28225;42.714;23.860;2022-12-18T00:23:51;36.40;;;18.40;;
42598;SDS011;28225;42.714;23.860;2022-12-18T00:26:21;43.08;;;19.60;;
42598;SDS011;28225;42.714;23.860;2022-12-18T00:28:48;29.55;;;15.65;;
42598;SDS011;28225;42.714;23.860;2022-12-18T00:31:15;49.08;;;18.58;;
42598;SDS011;28225;42.714;23.860;2022-12-18T00:33:43;47.40;;;19.00;;
42598;SDS011;28225;42.714;23.860;2022-12-18T00:36:25;29.33;;;16.60;;
42598;SDS011;28225;42.714;23.860;2022-12-18T00:38:57;33.50;;;16.40;;
42598;SDS011;28225;42.714;23.860;2022-12-18T00:41:24;29.95;;;14.48;;
42598;SDS011;28225;42.714;23.860;2022-12-18T00:44:10;20.08;;;12.80;;
42598;SDS011;28225;42.714;23.860;2022-12-18T00:46:36;20.15;;;12.15;;
42598;SDS011;28225;42.714;23.860;2022-12-18T00:49:02;24.67;;;11.70;;
42598;SDS011;28225;42.714;23.860;2022-12-18T00:51:27;17.67;;;11.23;;
42598;SDS011;28225;42.714;23.860;2022-12-18T00:53:53;14.82;;;9.27;;
42598;SDS011;28225;42.714;23.860;2022-12-18T00:56:22;14.50;;;9.63;;
42598;SDS011;28225;42.714;23.860;2022-12-18T01:01:13;19.38;;;10.73;;
42598;SDS011;28225;42.714;23.860;2022-12-18T01:03:39;13.27;;;8.60;;
42598;SDS011;28225;42.714;23.860;2022-12-18T01:06:05;15.80;;;9.48;;
42598;SDS011;28225;42.714;23.860;2022-12-18T01:08:32;18.33;;;8.93;;
42598;SDS011;28225;42.714;23.860;2022-12-18T01:10:58;16.38;;;9.63;;
42598;SDS011;28225;42.714;23.860;2022-12-18T01:13:23;15.00;;;9.45;;
42598;SDS011;28225;42.714;23.860;2022-12-18T01:15:49;16.33;;;9.75;;
42598;SDS011;28225;42.714;23.860;2022-12-18T01:18:15;12.73;;;8.80;;
42598;SDS011;28225;42.714;23.860;2022-12-18T01:20:40;11.23;;;8.05;;
42598;SDS011;28225;42.714;23.860;2022-12-18T01:23:05;16.17;;;9.40;;
42598;SDS011;28225;42.714;23.860;2022-12-18T01:25:31;14.32;;;8.63;;
42598;SDS011;28225;42.714;23.860;2022-12-18T01:27:56;15.23;;;8.55;;
42598;SDS011;28225;42.714;23.860;2022-12-18T01:30:22;16.15;;;8.68;;
42598;SDS011;28225;42.714;23.860;2022-12-18T01:32:47;11.23;;;7.85;;
42598;SDS011;28225;42.714;23.860;2022-12-18T01:35:13;14.32;;;8.27;;
42598;SDS011;28225;42.714;23.860;2022-12-18T01:37:38;14.88;;;9.73;;
42598;SDS011;28225;42.714;23.860;2022-12-18T01:40:04;15.38;;;9.30;;
42598;SDS011;28225;42.714;23.860;2022-12-18T01:42:29;14.23;;;8.13;;
42598;SDS011;28225;42.714;23.860;2022-12-18T01:45:05;13.05;;;9.43;;
42598;SDS011;28225;42.714;23.860;2022-12-18T01:55:51;14.95;;;8.95;;
42598;SDS011;28225;42.714;23.860;2022-12-18T01:58:19;15.55;;;9.15;;
42598;SDS011;28225;42.714;23.860;2022-12-18T02:00:45;14.35;;;8.52;;
42598;SDS011;28225;42.714;23.860;2022-12-18T02:03:11;19.30;;;9.13;;
42598;SDS011;28225;42.714;23.860;2022-12-18T02:08:18;16.65;;;9.88;;
42598;SDS011;28225;42.714;23.860;2022-12-18T02:11:06;13.82;;;8.88;;
42598;SDS011;28225;42.714;23.860;2022-12-18T02:18:41;13.83;;;8.60;;
42598;SDS011;28225;42.714;23.860;2022-12-18T02:26:48;12.95;;;8.90;;
42598;SDS011;28225;42.714;23.860;2022-12-18T02:29:35;17.20;;;8.85;;
42598;SDS011;28225;42.714;23.860;2022-12-18T02:32:06;13.82;;;8.57;;
42598;SDS011;28225;42.714;23.860;2022-12-18T02:34:35;19.48;;;10.80;;
42598;SDS011;28225;42.714;23.860;2022-12-18T02:37:03;15.30;;;9.80;;
42598;SDS011;28225;42.714;23.860;2022-12-18T02:39:31;17.00;;;9.88;;
42598;SDS011;28225;42.714;23.860;2022-12-18T02:41:57;12.93;;;9.32;;
42598;SDS011;28225;42.714;23.860;2022-12-18T02:44:23;17.35;;;11.15;;
42598;SDS011;28225;42.714;23.860;2022-12-18T02:46:50;18.45;;;10.32;;
42598;SDS011;28225;42.714;23.860;2022-12-18T02:54:55;24.17;;;8.18;;
42598;SDS011;28225;42.714;23.860;2022-12-18T02:57:41;13.95;;;8.68;;
42598;SDS011;28225;42.714;23.860;2022-12-18T03:00:14;15.85;;;9.75;;
42598;SDS011;28225;42.714;23.860;2022-12-18T03:02:46;20.95;;;10.70;;
42598;SDS011;28225;42.714;23.860;2022-12-18T03:05:24;18.13;;;10.20;;
42598;SDS011;28225;42.714;23.860;2022-12-18T03:08:01;14.85;;;8.88;;
42598;SDS011;28225;42.714;23.860;2022-12-18T03:10:29;14.75;;;10.20;;
42598;SDS011;28225;42.714;23.860;2022-12-18T03:12:59;17.58;;;11.13;;
42598;SDS011;28225;42.714;23.860;2022-12-18T03:15:38;17.73;;;10.85;;
42598;SDS011;28225;42.714;23.860;2022-12-18T03:18:10;21.70;;;13.70;;
42598;SDS011;28225;42.714;23.860;2022-12-18T03:20:39;17.20;;;10.75;;
42598;SDS011;28225;42.714;23.860;2022-12-18T03:23:07;21.27;;;12.18;;
42598;SDS011;28225;42.714;23.860;2022-12-18T03:25:35;18.10;;;11.17;;
42598;SDS011;28225;42.714;23.860;2022-12-18T03:28:03;21.45;;;12.02;;
42598;SDS011;28225;42.714;23.860;2022-12-18T03:30:31;17.73;;;9.60;;
42598;SDS011;28225;42.714;23.860;2022-12-18T03:33:06;15.70;;;9.73;;
42598;SDS011;28225;42.714;23.860;2022-12-18T03:35:35;15.93;;;10.00;;
42598;SDS011;28225;42.714;23.860;2022-12-18T03:38:04;18.17;;;10.55;;
42598;SDS011;28225;42.714;23.860;2022-12-18T03:40:33;15.30;;;9.95;;
42598;SDS011;28225;42.714;23.860;2022-12-18T03:43:09;15.48;;;9.98;;
42598;SDS011;28225;42.714;23.860;2022-12-18T03:45:41;18.88;;;10.60;;
42598;SDS011;28225;42.714;23.860;2022-12-18T03:50:46;21.27;;;10.70;;
42598;SDS011;28225;42.714;23.860;2022-12-18T03:53:21;17.52;;;10.43;;
42598;SDS011;28225;42.714;23.860;2022-12-18T03:55:55;15.43;;;9.38;;
42598;SDS011;28225;42.714;23.860;2022-12-18T03:58:23;18.40;;;11.00;;
42598;SDS011;28225;42.714;23.860;2022-12-18T04:00:49;16.08;;;9.85;;
42598;SDS011;28225;42.714;23.860;2022-12-18T04:03:17;17.20;;;10.18;;
42598;SDS011;28225;42.714;23.860;2022-12-18T04:05:43;18.23;;;10.25;;
42598;SDS011;28225;42.714;23.860;2022-12-18T04:08:10;17.05;;;10.50;;
42598;SDS011;28225;42.714;23.860;2022-12-18T04:10:35;15.57;;;9.55;;
42598;SDS011;28225;42.714;23.860;2022-12-18T04:13:01;16.77;;;9.85;;
42598;SDS011;28225;42.714;23.860;2022-12-18T04:15:26;13.75;;;8.45;;
42598;SDS011;28225;42.714;23.860;2022-12-18T04:17:52;13.50;;;8.52;;
42598;SDS011;28225;42.714;23.860;2022-12-18T04:20:17;11.85;;;8.43;;
42598;SDS011;28225;42.714;23.860;2022-12-18T04:22:43;13.77;;;9.38;;
42598;SDS011;28225;42.714;23.860;2022-12-18T04:25:08;16.33;;;9.73;;
42598;SDS011;28225;42.714;23.860;2022-12-18T04:27:37;16.30;;;10.07;;
42598;SDS011;28225;42.714;23.860;2022-12-18T04:30:02;14.48;;;9.27;;
42598;SDS011;28225;42.714;23.860;2022-12-18T04:32:28;14.02;;;9.27;;
42598;SDS011;28225;42.714;23.860;2022-12-18T04:34:54;14.02;;;9.18;;
42598;SDS011;28225;42.714;23.860;2022-12-18T04:37:19;15.05;;;9.57;;
42598;SDS011;28225;42.714;23.860;2022-12-18T04:39:45;16.20;;;8.93;;
42598;SDS011;28225;42.714;23.860;2022-12-18T04:42:10;12.85;;;8.25;;
42598;SDS011;28225;42.714;23.860;2022-12-18T04:44:36;13.55;;;9.05;;
42598;SDS011;28225;42.714;23.860;2022-12-18T04:47:01;14.93;;;10.15;;
42598;SDS011;28225;42.714;23.860;2022-12-18T04:49:27;13.98;;;9.35;;
42598;SDS011;28225;42.714;23.860;2022-12-18T04:51:52;12.55;;;8.68;;
42598;SDS011;28225;42.714;23.860;2022-12-18T04:54:18;13.73;;;9.48;;
42598;SDS011;28225;42.714;23.860;2022-12-18T04:56:46;14.20;;;9.00;;
42598;SDS011;28225;42.714;23.860;2022-12-18T04:59:11;15.15;;;8.27;;
42598;SDS011;28225;42.714;23.860;2022-12-18T05:01:37;15.95;;;8.95;;
42598;SDS011;28225;42.714;23.860;2022-12-18T05:04:02;16.27;;;10.52;;
42598;SDS011;28225;42.714;23.860;2022-12-18T05:06:28;20.23;;;13.07;;
42598;SDS011;28225;42.714;23.860;2022-12-18T05:08:53;14.10;;;9.55;;
42598;SDS011;28225;42.714;23.860;2022-12-18T05:11:19;18.17;;;11.38;;
42598;SDS011;28225;42.714;23.860;2022-12-18T05:13:45;15.43;;;10.60;;
42598;SDS011;28225;42.714;23.860;2022-12-18T05:16:10;16.05;;;10.60;;
42598;SDS011;28225;42.714;23.860;2022-12-18T05:18:36;15.82;;;10.48;;
42598;SDS011;28225;42.714;23.860;2022-12-18T05:21:02;14.10;;;9.07;;
42598;SDS011;28225;42.714;23.860;2022-12-18T05:23:28;14.48;;;9.77;;
42598;SDS011;28225;42.714;23.860;2022-12-18T05:25:55;14.30;;;9.07;;
42598;SDS011;28225;42.714;23.860;2022-12-18T05:28:25;19.10;;;12.27;;
42598;SDS011;28225;42.714;23.860;2022-12-18T05:30:52;23.05;;;11.90;;
42598;SDS011;28225;42.714;23.860;2022-12-18T05:33:22;20.88;;;13.30;;
42598;SDS011;28225;42.714;23.860;2022-12-18T05:35:53;19.90;;;12.38;;
42598;SDS011;28225;42.714;23.860;2022-12-18T05:38:22;20.25;;;13.52;;
42598;SDS011;28225;42.714;23.860;2022-12-18T05:40:49;26.83;;;15.18;;
42598;SDS011;28225;42.714;23.860;2022-12-18T05:43:16;14.77;;;9.73;;
42598;SDS011;28225;42.714;23.860;2022-12-18T05:45:42;36.30;;;18.35;;
42598;SDS011;28225;42.714;23.860;2022-12-18T05:48:07;21.23;;;12.15;;
42598;SDS011;28225;42.714;23.860;2022-12-18T05:50:37;37.38;;;18.27;;
42598;SDS011;28225;42.714;23.860;2022-12-18T05:53:04;18.33;;;10.52;;
42598;SDS011;28225;42.714;23.860;2022-12-18T05:55:36;17.52;;;10.32;;
42598;SDS011;28225;42.714;23.860;2022-12-18T05:58:03;15.80;;;9.82;;
42598;SDS011;28225;42.714;23.860;2022-12-18T06:00:30;17.15;;;10.48;;
42598;SDS011;28225;42.714;23.860;2022-12-18T06:02:57;18.80;;;11.70;;
42598;SDS011;28225;42.714;23.860;2022-12-18T06:05:23;25.27;;;14.55;;
42598;SDS011;28225;42.714;23.860;2022-12-18T06:07:48;24.13;;;14.15;;
42598;SDS011;28225;42.714;23.860;2022-12-18T06:10:13;14.40;;;9.48;;
42598;SDS011;28225;42.714;23.860;2022-12-18T06:12:39;14.88;;;9.60;;
42598;SDS011;28225;42.714;23.860;2022-12-18T06:15:04;16.80;;;9.50;;
42598;SDS011;28225;42.714;23.860;2022-12-18T06:17:31;15.35;;;10.25;;
42598;SDS011;28225;42.714;23.860;2022-12-18T06:19:57;18.38;;;9.68;;
42598;SDS011;28225;42.714;23.860;2022-12-18T06:22:22;16.65;;;9.77;;
42598;SDS011;28225;42.714;23.860;2022-12-18T06:24:48;16.58;;;10.48;;
42598;SDS011;28225;42.714;23.860;2022-12-18T06:27:13;17.25;;;10.70;;
42598;SDS011;28225;42.714;23.860;2022-12-18T06:29:39;16.92;;;10.07;;
42598;SDS011;28225;42.714;23.860;2022-12-18T06:32:04;18.95;;;11.70;;
42598;SDS011;28225;42.714;23.860;2022-12-18T06:34:30;24.63;;;12.63;;
42598;SDS011;28225;42.714;23.860;2022-12-18T06:36:55;23.92;;;13.63;;
42598;SDS011;28225;42.714;23.860;2022-12-18T06:42:26;21.70;;;12.27;;
42598;SDS011;28225;42.714;23.860;2022-12-18T06:44:52;19.88;;;12.38;;
42598;SDS011;28225;42.714;23.860;2022-12-18T06:47:17;21.10;;;12.38;;
42598;SDS011;28225;42.714;23.860;2022-12-18T06:49:43;22.08;;;12.95;;
42598;SDS011;28225;42.714;23.860;2022-12-18T06:52:08;23.15;;;13.32;;
42598;SDS011;28225;42.714;23.860;2022-12-18T06:54:34;24.52;;;13.35;;
42598;SDS011;28225;42.714;23.860;2022-12-18T06:56:59;24.23;;;14.20;;
42598;SDS011;28225;42.714;23.860;2022-12-18T06:59:25;24.05;;;13.60;;
42598;SDS011;28225;42.714;23.860;2022-12-18T07:01:50;33.53;;;17.48;;
42598;SDS011;28225;42.714;23.860;2022-12-18T07:04:16;35.17;;;18.88;;
42598;SDS011;28225;42.714;23.860;2022-12-18T07:06:42;32.65;;;16.58;;
42598;SDS011;28225;42.714;23.860;2022-12-18T07:09:07;40.08;;;22.23;;
42598;SDS011;28225;42.714;23.860;2022-12-18T07:11:33;28.80;;;15.38;;
42598;SDS011;28225;42.714;23.860;2022-12-18T07:13:58;20.10;;;12.82;;
42598;SDS011;28225;42.714;23.860;2022-12-18T07:16:24;25.58;;;14.32;;
42598;SDS011;28225;42.714;23.860;2022-12-18T07:18:49;22.20;;;14.10;;
42598;SDS011;28225;42.714;23.860;2022-12-18T07:21:15;24.23;;;15.18;;
42598;SDS011;28225;42.714;23.860;2022-12-18T07:23:42;23.45;;;14.15;;
42598;SDS011;28225;42.714;23.860;2022-12-18T07:26:09;25.35;;;13.93;;
42598;SDS011;28225;42.714;23.860;2022-12-18T07:28:37;25.08;;;14.20;;
42598;SDS011;28225;42.714;23.860;2022-12-18T07:31:11;23.58;;;13.40;;
42598;SDS011;28225;42.714;23.860;2022-12-18T07:33:39;26.88;;;16.58;;
42598;SDS011;28225;42.714;23.860;2022-12-18T07:36:05;25.65;;;15.20;;
42598;SDS011;28225;42.714;23.860;2022-12-18T07:38:32;23.88;;;15.30;;
42598;SDS011;28225;42.714;23.860;2022-12-18T07:41:05;27.63;;;15.35;;
42598;SDS011;28225;42.714;23.860;2022-12-18T07:43:32;23.02;;;14.25;;
42598;SDS011;28225;42.714;23.860;2022-12-18T07:45:58;25.08;;;13.65;;
42598;SDS011;28225;42.714;23.860;2022-12-18T07:48:24;25.25;;;14.35;;
42598;SDS011;28225;42.714;23.860;2022-12-18T07:50:50;25.20;;;14.52;;
42598;SDS011;28225;42.714;23.860;2022-12-18T07:53:15;28.92;;;14.32;;
42598;SDS011;28225;42.714;23.860;2022-12-18T07:55:41;26.33;;;14.85;;
42598;SDS011;28225;42.714;23.860;2022-12-18T07:58:07;30.60;;;15.10;;
42598;SDS011;28225;42.714;23.860;2022-12-18T08:00:33;26.50;;;15.95;;
42598;SDS011;28225;42.714;23.860;2022-12-18T08:02:58;23.15;;;13.00;;
42598;SDS011;28225;42.714;23.860;2022-12-18T08:05:24;25.58;;;14.02;;
42598;SDS011;28225;42.714;23.860;2022-12-18T08:07:50;25.60;;;14.13;;
42598;SDS011;28225;42.714;23.860;2022-12-18T08:10:15;25.08;;;13.27;;
42598;SDS011;28225;42.714;23.860;2022-12-18T08:12:41;25.40;;;14.68;;
42598;SDS011;28225;42.714;23.860;2022-12-18T08:15:06;26.00;;;13.95;;
42598;SDS011;28225;42.714;23.860;2022-12-18T08:17:32;23.52;;;12.82;;
42598;SDS011;28225;42.714;23.860;2022-12-18T08:19:58;23.75;;;13.60;;
42598;SDS011;28225;42.714;23.860;2022-12-18T08:22:24;22.73;;;15.15;;
42598;SDS011;28225;42.714;23.860;2022-12-18T08:24:49;21.60;;;13.43;;
42598;SDS011;28225;42.714;23.860;2022-12-18T08:27:15;27.20;;;14.60;;
42598;SDS011;28225;42.714;23.860;2022-12-18T08:29:40;24.70;;;13.38;;
42598;SDS011;28225;42.714;23.860;2022-12-18T08:32:06;28.05;;;15.88;;
42598;SDS011;28225;42.714;23.860;2022-12-18T08:34:31;30.13;;;14.68;;
42598;SDS011;28225;42.714;23.860;2022-12-18T08:36:57;26.63;;;13.60;;
42598;SDS011;28225;42.714;23.860;2022-12-18T08:39:22;27.90;;;17.20;;
42598;SDS011;28225;42.714;23.860;2022-12-18T08:41:48;24.05;;;14.35;;
42598;SDS011;28225;42.714;23.860;2022-12-18T08:44:33;27.13;;;15.93;;
42598;SDS011;28225;42.714;23.860;2022-12-18T08:47:05;26.45;;;14.18;;
42598;SDS011;28225;42.714;23.860;2022-12-18T08:49:31;23.88;;;14.13;;
42598;SDS011;28225;42.714;23.860;2022-12-18T08:51:57;25.25;;;14.95;;
42598;SDS011;28225;42.714;23.860;2022-12-18T08:54:23;25.38;;;13.40;;
42598;SDS011;28225;42.714;23.860;2022-12-18T08:56:49;23.23;;;14.45;;
42598;SDS011;28225;42.714;23.860;2022-12-18T08:59:15;28.65;;;15.85;;
42598;SDS011;28225;42.714;23.860;2022-12-18T09:01:41;26.63;;;15.63;;
42598;SDS011;28225;42.714;23.860;2022-12-18T09:04:07;36.08;;;17.15;;
42598;SDS011;28225;42.714;23.860;2022-12-18T09:06:34;25.60;;;15.50;;
42598;SDS011;28225;42.714;23.860;2022-12-18T09:08:59;33.13;;;17.15;;
42598;SDS011;28225;42.714;23.860;2022-12-18T09:11:25;34.10;;;19.60;;
42598;SDS011;28225;42.714;23.860;2022-12-18T09:13:52;33.45;;;17.88;;
42598;SDS011;28225;42.714;23.860;2022-12-18T09:16:18;34.03;;;18.33;;
42598;SDS011;28225;42.714;23.860;2022-12-18T09:18:44;27.55;;;16.00;;
42598;SDS011;28225;42.714;23.860;2022-12-18T09:21:13;27.75;;;16.02;;
42598;SDS011;28225;42.714;23.860;2022-12-18T09:23:42;26.70;;;17.55;;
42598;SDS011;28225;42.714;23.860;2022-12-18T09:26:08;31.88;;;18.05;;
42598;SDS011;28225;42.714;23.860;2022-12-18T09:28:33;34.63;;;18.05;;
42598;SDS011;28225;42.714;23.860;2022-12-18T09:30:59;22.30;;;14.10;;
42598;SDS011;28225;42.714;23.860;2022-12-18T09:33:29;28.05;;;15.73;;
42598;SDS011;28225;42.714;23.860;2022-12-18T09:35:55;23.77;;;13.45;;
42598;SDS011;28225;42.714;23.860;2022-12-18T09:38:20;25.08;;;14.80;;
42598;SDS011;28225;42.714;23.860;2022-12-18T09:40:50;23.70;;;14.32;;
42598;SDS011;28225;42.714;23.860;2022-12-18T09:43:19;24.52;;;13.93;;
42598;SDS011;28225;42.714;23.860;2022-12-18T09:45:47;23.02;;;12.02;;
42598;SDS011;28225;42.714;23.860;2022-12-18T09:48:19;24.23;;;12.23;;
42598;SDS011;28225;42.714;23.860;2022-12-18T09:51:18;27.17;;;14.50;;
42598;SDS011;28225;42.714;23.860;2022-12-18T09:53:47;30.38;;;15.27;;
42598;SDS011;28225;42.714;23.860;2022-12-18T09:56:24;27.50;;;16.05;;
42598;SDS011;28225;42.714;23.860;2022-12-18T10:01:23;33.67;;;16.90;;
42598;SDS011;28225;42.714;23.860;2022-12-18T10:03:49;27.38;;;16.42;;
42598;SDS011;28225;42.714;23.860;2022-12-18T10:06:34;23.67;;;13.43;;
42598;SDS011;28225;42.714;23.860;2022-12-18T10:09:07;26.00;;;14.90;;
42598;SDS011;28225;42.714;23.860;2022-12-18T10:19:37;20.67;;;12.70;;
42598;SDS011;28225;42.714;23.860;2022-12-18T10:25:03;22.17;;;12.40;;
42598;SDS011;28225;42.714;23.860;2022-12-18T10:27:32;24.58;;;13.52;;
42598;SDS011;28225;42.714;23.860;2022-12-18T10:29:57;19.98;;;12.02;;
42598;SDS011;28225;42.714;23.860;2022-12-18T10:32:24;21.08;;;13.02;;
42598;SDS011;28225;42.714;23.860;2022-12-18T10:34:52;18.77;;;12.18;;
42598;SDS011;28225;42.714;23.860;2022-12-18T10:37:20;21.15;;;11.90;;
42598;SDS011;28225;42.714;23.860;2022-12-18T10:42:36;18.50;;;12.13;;
42598;SDS011;28225;42.714;23.860;2022-12-18T10:45:08;18.85;;;11.45;;
42598;SDS011;28225;42.714;23.860;2022-12-18T10:47:43;22.55;;;13.70;;
42598;SDS011;28225;42.714;23.860;2022-12-18T10:50:28;23.63;;;13.00;;
42598;SDS011;28225;42.714;23.860;2022-12-18T10:52:58;22.70;;;12.30;;
42598;SDS011;28225;42.714;23.860;2022-12-18T10:55:35;20.42;;;11.38;;
42598;SDS011;28225;42.714;23.860;2022-12-18T10:58:13;21.63;;;12.07;;
42598;SDS011;28225;42.714;23.860;2022-12-18T11:00:44;33.60;;;12.52;;
42598;SDS011;28225;42.714;23.860;2022-12-18T11:03:28;18.80;;;12.18;;
42598;SDS011;28225;42.714;23.860;2022-12-18T11:06:01;26.33;;;14.35;;
42598;SDS011;28225;42.714;23.860;2022-12-18T11:08:29;24.25;;;13.32;;
42598;SDS011;28225;42.714;23.860;2022-12-18T11:10:54;23.83;;;12.63;;
42598;SDS011;28225;42.714;23.860;2022-12-18T11:13:21;20.65;;;12.60;;
42598;SDS011;28225;42.714;23.860;2022-12-18T11:15:48;23.65;;;12.90;;
42598;SDS011;28225;42.714;23.860;2022-12-18T11:18:16;19.85;;;12.23;;
42598;SDS011;28225;42.714;23.860;2022-12-18T11:23:12;21.70;;;12.75;;
42598;SDS011;28225;42.714;23.860;2022-12-18T11:25:38;18.65;;;12.50;;
42598;SDS011;28225;42.714;23.860;2022-12-18T11:28:50;22.40;;;13.23;;
42598;SDS011;28225;42.714;23.860;2022-12-18T11:36:45;21.95;;;11.57;;
42598;SDS011;28225;42.714;23.860;2022-12-18T11:39:21;21.17;;;11.32;;
42598;SDS011;28225;42.714;23.860;2022-12-18T11:42:20;20.95;;;11.73;;
42598;SDS011;28225;42.714;23.860;2022-12-18T11:44:51;25.30;;;13.07;;
42598;SDS011;28225;42.714;23.860;2022-12-18T11:47:45;21.42;;;12.27;;
42598;SDS011;28225;42.714;23.860;2022-12-18T11:50:25;19.27;;;11.05;;
42598;SDS011;28225;42.714;23.860;2022-12-18T11:52:59;18.77;;;12.05;;
42598;SDS011;28225;42.714;23.860;2022-12-18T12:01:28;19.92;;;11.73;;
42598;SDS011;28225;42.714;23.860;2022-12-18T12:15:17;17.17;;;10.45;;
42598;SDS011;28225;42.714;23.860;2022-12-18T12:20:45;21.35;;;11.82;;
42598;SDS011;28225;42.714;23.860;2022-12-18T12:30:50;22.60;;;10.82;;
42598;SDS011;28225;42.714;23.860;2022-12-18T12:35:56;8.18;;;5.78;;
42598;SDS011;28225;42.714;23.860;2022-12-18T12:38:45;10.85;;;6.97;;
42598;SDS011;28225;42.714;23.860;2022-12-18T12:41:17;8.63;;;5.53;;
42598;SDS011;28225;42.714;23.860;2022-12-18T12:44:05;15.23;;;8.00;;
42598;SDS011;28225;42.714;23.860;2022-12-18T12:46:34;12.70;;;8.25;;
42598;SDS011;28225;42.714;23.860;2022-12-18T12:49:02;11.30;;;6.82;;
42598;SDS011;28225;42.714;23.860;2022-12-18T12:51:33;9.63;;;6.47;;
42598;SDS011;28225;42.714;23.860;2022-12-18T12:54:01;11.50;;;6.22;;
42598;SDS011;28225;42.714;23.860;2022-12-18T12:59:37;8.00;;;4.93;;
42598;SDS011;28225;42.714;23.860;2022-12-18T13:07:55;9.00;;;5.05;;
42598;SDS011;28225;42.714;23.860;2022-12-18T13:18:16;6.47;;;4.57;;
42598;SDS011;28225;42.714;23.860;2022-12-18T13:20:44;13.43;;;6.95;;
42598;SDS011;28225;42.714;23.860;2022-12-18T13:25:49;9.15;;;5.53;;
42598;SDS011;28225;42.714;23.860;2022-12-18T13:29:02;8.95;;;5.32;;
42598;SDS011;28225;42.714;23.860;2022-12-18T13:31:14;9.60;;;6.60;;
42598;SDS011;28225;42.714;23.860;2022-12-18T13:33:48;15.85;;;7.32;;
42598;SDS011;28225;42.714;23.860;2022-12-18T13:38:42;10.90;;;6.50;;
42598;SDS011;28225;42.714;23.860;2022-12-18T13:51:40;21.25;;;10.05;;
42598;SDS011;28225;42.714;23.860;2022-12-18T13:54:18;18.33;;;11.00;;
42598;SDS011;28225;42.714;23.860;2022-12-18T13:56:46;19.52;;;11.07;;
42598;SDS011;28225;42.714;23.860;2022-12-18T13:59:13;17.48;;;10.60;;
42598;SDS011;28225;42.714;23.860;2022-12-18T14:01:50;17.60;;;11.07;;
42598;SDS011;28225;42.714;23.860;2022-12-18T14:04:18;18.48;;;11.05;;
42598;SDS011;28225;42.714;23.860;2022-12-18T14:07:10;24.48;;;11.00;;
42598;SDS011;28225;42.714;23.860;2022-12-18T14:09:42;19.80;;;11.93;;
42598;SDS011;28225;42.714;23.860;2022-12-18T14:12:16;18.25;;;10.93;;
42598;SDS011;28225;42.714;23.860;2022-12-18T14:15:01;23.88;;;12.43;;
42598;SDS011;28225;42.714;23.860;2022-12-18T14:17:28;24.77;;;13.75;;
42598;SDS011;28225;42.714;23.860;2022-12-18T14:19:54;21.42;;;12.02;;
42598;SDS011;28225;42.714;23.860;2022-12-18T14:22:20;20.67;;;11.73;;
42598;SDS011;28225;42.714;23.860;2022-12-18T14:30:34;24.23;;;13.80;;
42598;SDS011;28225;42.714;23.860;2022-12-18T14:35:32;20.33;;;12.07;;
42598;SDS011;28225;42.714;23.860;2022-12-18T14:40:45;24.08;;;14.10;;
42598;SDS011;28225;42.714;23.860;2022-12-18T14:43:10;20.55;;;12.25;;
42598;SDS011;28225;42.714;23.860;2022-12-18T14:45:42;23.10;;;13.52;;
42598;SDS011;28225;42.714;23.860;2022-12-18T14:48:08;23.50;;;13.48;;
42598;SDS011;28225;42.714;23.860;2022-12-18T14:50:34;25.50;;;14.68;;
42598;SDS011;28225;42.714;23.860;2022-12-18T14:53:00;29.60;;;15.38;;
42598;SDS011;28225;42.714;23.860;2022-12-18T14:55:26;34.80;;;17.30;;
42598;SDS011;28225;42.714;23.860;2022-12-18T14:57:52;26.95;;;15.13;;
42598;SDS011;28225;42.714;23.860;2022-12-18T15:00:21;29.55;;;15.55;;
42598;SDS011;28225;42.714;23.860;2022-12-18T15:02:50;20.83;;;12.20;;
42598;SDS011;28225;42.714;23.860;2022-12-18T15:05:24;22.38;;;12.82;;
42598;SDS011;28225;42.714;23.860;2022-12-18T15:07:53;25.08;;;13.30;;
42598;SDS011;28225;42.714;23.860;2022-12-18T15:10:24;25.80;;;13.95;;
42598;SDS011;28225;42.714;23.860;2022-12-18T15:20:52;28.35;;;14.68;;
42598;SDS011;28225;42.714;23.860;2022-12-18T15:23:35;22.65;;;13.35;;
42598;SDS011;28225;42.714;23.860;2022-12-18T15:26:07;27.27;;;14.48;;
42598;SDS011;28225;42.714;23.860;2022-12-18T15:36:20;29.73;;;14.32;;
42598;SDS011;28225;42.714;23.860;2022-12-18T15:38:48;24.17;;;12.73;;
42598;SDS011;28225;42.714;23.860;2022-12-18T15:41:15;23.52;;;13.52;;
42598;SDS011;28225;42.714;23.860;2022-12-18T15:43:45;25.92;;;14.07;;
42598;SDS011;28225;42.714;23.860;2022-12-18T15:46:12;32.63;;;18.05;;
42598;SDS011;28225;42.714;23.860;2022-12-18T15:48:43;30.83;;;18.15;;
42598;SDS011;28225;42.714;23.860;2022-12-18T15:51:29;37.92;;;21.10;;
42598;SDS011;28225;42.714;23.860;2022-12-18T15:54:03;24.85;;;14.40;;
42598;SDS011;28225;42.714;23.860;2022-12-18T15:56:30;26.10;;;14.52;;
42598;SDS011;28225;42.714;23.860;2022-12-18T15:59:15;28.73;;;14.90;;
42598;SDS011;28225;42.714;23.860;2022-12-18T16:01:43;25.13;;;14.32;;
42598;SDS011;28225;42.714;23.860;2022-12-18T16:04:13;33.92;;;19.15;;
42598;SDS011;28225;42.714;23.860;2022-12-18T16:06:40;35.05;;;20.85;;
42598;SDS011;28225;42.714;23.860;2022-12-18T16:09:06;28.33;;;15.85;;
42598;SDS011;28225;42.714;23.860;2022-12-18T16:11:32;31.40;;;15.20;;
42598;SDS011;28225;42.714;23.860;2022-12-18T16:14:29;25.77;;;15.15;;
42598;SDS011;28225;42.714;23.860;2022-12-18T16:16:55;27.60;;;14.57;;
42598;SDS011;28225;42.714;23.860;2022-12-18T16:19:22;27.17;;;15.93;;
42598;SDS011;28225;42.714;23.860;2022-12-18T16:21:48;26.70;;;13.75;;
42598;SDS011;28225;42.714;23.860;2022-12-18T16:24:15;19.83;;;11.55;;
42598;SDS011;28225;42.714;23.860;2022-12-18T16:26:49;19.77;;;12.85;;
42598;SDS011;28225;42.714;23.860;2022-12-18T16:29:16;20.42;;;12.55;;
42598;SDS011;28225;42.714;23.860;2022-12-18T16:31:42;21.60;;;11.25;;
42598;SDS011;28225;42.714;23.860;2022-12-18T16:34:11;19.75;;;10.98;;
42598;SDS011;28225;42.714;23.860;2022-12-18T16:36:51;26.20;;;13.38;;
42598;SDS011;28225;42.714;23.860;2022-12-18T16:39:18;25.33;;;14.52;;
42598;SDS011;28225;42.714;23.860;2022-12-18T16:41:44;24.48;;;14.85;;
42598;SDS011;28225;42.714;23.860;2022-12-18T16:44:09;28.15;;;15.38;;
42598;SDS011;28225;42.714;23.860;2022-12-18T16:46:35;30.17;;;14.60;;
42598;SDS011;28225;42.714;23.860;2022-12-18T16:49:01;27.58;;;13.65;;
42598;SDS011;28225;42.714;23.860;2022-12-18T16:51:27;15.30;;;9.07;;
42598;SDS011;28225;42.714;23.860;2022-12-18T16:53:53;13.55;;;8.90;;
42598;SDS011;28225;42.714;23.860;2022-12-18T16:56:19;17.70;;;8.13;;